Pagina principale
METAR-TAF:

METAR-TAF

Aeroporti :

Aeroporto di Maun

Maun, Botswana

latitudine: 19-59S, longitudine: 023-25E, altezza: 945 m

Osservazione

Il bollettino è stato emesso 1 ora e 14 minuti fa, alle 02:00 UTC
Vento 12 kt da est
Temperature 25°C
Umidità 28%
Pressione 1013 hPa
Visibilità 10 km o più
nessuna nube inferiore a 1500 m e nessun cumulonembo

METAR: FBMN 260200Z 09012KT CAVOK 25/05 Q1013

Ora: 05:14 (03:14 UTC)

Previsione

Il bollettino è stato emesso 3 ore e 14 minuti fa, alle 00:00 UTC
Previsione valida dal 26 alle 03 UTC al 26 alle 12 UTC
Vento 18 kt da est
Visibilità 10 km o più
nessuna nube inferiore a 1500 m e nessun cumulonembo

TAF: FBMN 260000Z 2603/2612 08018KT CAVOK

Osservazioni e previsioni meteorologiche di più di 4000 aeroporti (messaggi METAR e TAF).

Le stazioni disponibili sono rappresentate dai dischi gialli e rossi sulla carta.

Puntare il mouse per vedere il nome della stazione.

Clicca sopra per visualizzare le osservazioni e previsioni meteorologiche.

Per cambiare la mappa : fare clic sui pulsanti verdi con una croce nera per ingrandire, il pulsante verde con un trattino per diminuire, o sulla freccia verde per le mappe adiacenti.


METAR-TAF: